Time;durP1;ratioP1;P1;durP2;ratioP2;P2;SDS_P1;SDS_P2;PMS_P1;PMS_P2;Temp;Humidity;BMP_temperature;BMP_pressure;BME280_temperature;BME280_humidity;BME280_pressure;Samples;Min_cycle;Max_cycle;Signal;HPM_P1;HPM_P2
2021/08/26 00:06:47;;;;;;;9.25;5.22;;;;;;;26.13;49.53;100200.89;1786311;79;21668;-44
2021/08/26 00:09:15;;;;;;;8.43;5.00;;;;;;;26.14;49.56;100203.09;1801111;78;21096;-45
2021/08/26 00:11:51;;;;;;;6.20;4.78;;;;;;;26.14;49.61;100206.66;1788029;79;21876;-44
2021/08/26 00:14:18;;;;;;;7.67;4.80;;;;;;;26.14;49.68;100201.70;1786995;78;21107;-44
2021/08/26 00:16:44;;;;;;;7.47;4.95;;;;;;;26.14;49.73;100194.73;1797724;78;21093;-45
2021/08/26 00:19:13;;;;;;;8.45;5.45;;;;;;;26.15;49.77;100199.10;1790505;78;21092;-44
2021/08/26 00:21:40;;;;;;;8.40;6.08;;;;;;;26.14;49.83;100191.32;1797603;79;20982;-44
2021/08/26 00:24:07;;;;;;;7.42;5.25;;;;;;;26.14;49.86;100199.69;1802084;78;23193;-46
2021/08/26 00:26:33;;;;;;;8.25;5.03;;;;;;;26.15;49.90;100197.70;1792043;78;21120;-44
2021/08/26 00:29:02;;;;;;;7.87;4.80;;;;;;;26.15;49.98;100198.52;1782936;79;21044;-45
2021/08/26 00:31:28;;;;;;;8.48;5.37;;;;;;;26.16;50.00;100197.94;1791309;78;21099;-43
2021/08/26 00:33:55;;;;;;;6.65;4.47;;;;;;;26.15;50.05;100197.13;1767675;78;21114;-48
2021/08/26 00:36:22;;;;;;;7.05;4.72;;;;;;;26.16;50.12;100193.17;1769177;78;21154;-45
2021/08/26 00:38:49;;;;;;;8.30;4.55;;;;;;;26.16;50.15;100193.75;1769797;78;21020;-44
2021/08/26 00:41:19;;;;;;;6.05;4.58;;;;;;;26.16;50.19;100195.95;1779723;78;21043;-45
2021/08/26 00:43:45;;;;;;;7.25;4.83;;;;;;;26.16;50.22;100190.97;1769143;78;21934;-48
2021/08/26 00:46:14;;;;;;;7.00;5.12;;;;;;;26.16;50.25;100190.38;1776129;78;20934;-43
2021/08/26 00:48:45;;;;;;;8.33;4.72;;;;;;;26.16;50.30;100197.35;1768004;78;21204;-46
2021/08/26 00:51:12;;;;;;;7.08;4.55;;;;;;;26.16;50.35;100197.35;1779389;78;21127;-44
2021/08/26 00:53:39;;;;;;;8.30;5.47;;;;;;;26.17;50.38;100196.19;1771961;78;21065;-46
2021/08/26 00:56:16;;;;;;;10.38;4.92;;;;;;;26.18;50.44;100192.19;1769579;78;21537;-44
2021/08/26 00:58:49;;;;;;;8.20;4.70;;;;;;;26.18;50.50;100196.37;1775645;78;21506;-44
2021/08/26 01:01:18;;;;;;;9.03;5.20;;;;;;;26.18;50.53;100192.19;1791064;78;21020;-44
2021/08/26 01:03:56;;;;;;;6.37;4.47;;;;;;;26.17;50.57;100197.58;1794134;78;20959;-45
2021/08/26 01:06:31;;;;;;;7.45;4.83;;;;;;;26.17;50.60;100195.38;1762709;78;21020;-45
2021/08/26 01:09:03;;;;;;;7.97;5.03;;;;;;;26.17;50.63;100192.00;1777213;78;21036;-47
2021/08/26 01:11:34;;;;;;;7.12;4.55;;;;;;;26.16;50.65;100189.57;1769610;78;21585;-44
2021/08/26 01:14:03;;;;;;;7.45;5.00;;;;;;;26.16;50.69;100201.53;1763460;78;21105;-46
2021/08/26 01:16:29;;;;;;;5.92;4.47;;;;;;;26.17;50.74;100203.16;1767043;78;21085;-46
2021/08/26 01:18:55;;;;;;;6.60;4.80;;;;;;;26.16;50.75;100205.72;1759158;78;21087;-44
2021/08/26 01:21:23;;;;;;;6.15;4.35;;;;;;;26.17;50.81;100203.16;1766687;78;21066;-47
2021/08/26 01:23:54;;;;;;;6.42;4.45;;;;;;;26.17;50.81;100198.16;1778572;78;21095;-46
2021/08/26 01:26:26;;;;;;;;;;;;;;;26.18;50.82;100192.81;1768151;78;21114;-44
2021/08/26 01:28:54;;;;;;;6.15;4.33;;;;;;;26.17;50.84;100192.00;1759221;78;20245;-45
2021/08/26 01:31:21;;;;;;;6.37;4.58;;;;;;;26.16;50.84;100196.55;1761944;78;21213;-47
2021/08/26 01:33:54;;;;;;;8.33;4.70;;;;;;;26.15;50.87;100190.16;1788248;79;20988;-45
2021/08/26 01:36:29;;;;;;;7.15;4.80;;;;;;;26.15;50.90;100201.89;1788514;79;21001;-46
2021/08/26 01:39:04;;;;;;;6.72;4.80;;;;;;;26.16;50.96;100212.69;1793654;79;23159;-45
2021/08/26 01:41:54;;;;;;;8.35;5.17;;;;;;;26.16;51.00;100208.50;1790478;79;21003;-46
2021/08/26 01:44:24;;;;;;;6.62;4.60;;;;;;;26.16;51.03;100200.72;1785716;79;21023;-49
2021/08/26 01:46:53;;;;;;;6.85;4.87;;;;;;;26.14;51.08;100202.48;1782465;79;21042;-45
2021/08/26 01:49:19;;;;;;;7.33;5.15;;;;;;;26.14;51.10;100203.88;1779935;79;21030;-45
2021/08/26 01:51:45;;;;;;;5.97;4.08;;;;;;;26.15;51.16;100204.09;1776925;79;22062;-45
2021/08/26 01:54:11;;;;;;;6.08;4.42;;;;;;;26.15;51.22;100207.47;1743266;81;21046;-46
2021/08/26 01:56:38;;;;;;;8.45;4.47;;;;;;;26.15;51.26;100198.52;1722556;82;21606;-45
2021/08/26 01:59:04;;;;;;;7.40;5.25;;;;;;;26.15;51.29;100204.09;1718747;82;21041;-47
2021/08/26 02:01:30;;;;;;;6.00;4.70;;;;;;;26.15;51.34;100207.47;1742320;81;22027;-46
2021/08/26 02:03:56;;;;;;;7.97;5.03;;;;;;;26.15;51.39;100206.88;1751461;81;21201;-45
2021/08/26 02:06:22;;;;;;;7.87;4.92;;;;;;;26.14;51.46;100201.08;1717491;83;21019;-46
2021/08/26 02:08:48;;;;;;;8.65;5.12;;;;;;;26.16;51.55;100206.30;1734356;82;21714;-45
2021/08/26 02:11:15;;;;;;;8.63;4.72;;;;;;;26.16;51.60;100205.72;1737064;82;21927;-45
2021/08/26 02:13:41;;;;;;;7.62;5.40;;;;;;;26.15;51.61;100199.91;1749582;81;21093;-45
2021/08/26 02:16:07;;;;;;;7.70;4.80;;;;;;;26.16;51.67;100200.14;1740630;81;22126;-46
2021/08/26 02:18:35;;;;;;;7.92;4.75;;;;;;;26.15;51.75;100198.52;1736343;82;20937;-46
2021/08/26 02:21:01;;;;;;;7.60;5.00;;;;;;;26.15;51.83;100199.10;1735185;82;20982;-46
2021/08/26 02:23:28;;;;;;;6.92;4.90;;;;;;;26.16;51.87;100193.75;1739437;82;21454;-45
2021/08/26 02:25:54;;;;;;;6.03;4.50;;;;;;;26.16;51.89;100190.38;1736064;82;20968;-45
2021/08/26 02:28:20;;;;;;;6.20;4.60;;;;;;;26.15;51.92;100192.13;1721996;82;21290;-45
2021/08/26 02:30:46;;;;;;;6.72;4.65;;;;;;;26.15;51.94;100191.55;1751378;81;21408;-46
2021/08/26 02:33:12;;;;;;;5.42;4.15;;;;;;;26.16;52.00;100183.41;1744808;81;20993;-47
2021/08/26 02:35:38;;;;;;;6.00;4.37;;;;;;;26.16;52.08;100182.60;1725383;81;21841;-50
2021/08/26 02:38:04;;;;;;;6.17;4.72;;;;;;;26.15;52.12;100194.34;1792210;79;20980;-46
2021/08/26 02:40:31;;;;;;;5.78;4.47;;;;;;;26.15;52.17;100192.94;1780872;78;21545;-45
2021/08/26 02:42:57;;;;;;;6.83;4.55;;;;;;;26.15;52.24;100202.70;1792886;78;20981;-45
2021/08/26 02:45:23;;;;;;;6.90;4.87;;;;;;;26.15;52.28;100194.92;1808861;79;20932;-46
2021/08/26 02:47:49;;;;;;;5.80;4.75;;;;;;;26.14;52.32;100184.97;1800004;78;21016;-46
2021/08/26 02:50:15;;;;;;;6.45;4.80;;;;;;;26.15;52.41;100182.38;1803518;78;21312;-45
2021/08/26 02:52:41;;;;;;;7.20;4.40;;;;;;;26.15;52.50;100192.13;1803336;78;23270;-48
2021/08/26 02:55:09;;;;;;;6.17;4.67;;;;;;;26.14;52.59;100187.76;1786019;79;21142;-47
2021/08/26 02:57:35;;;;;;;5.80;4.47;;;;;;;26.15;52.66;100190.73;1788847;78;20989;-45
2021/08/26 03:00:02;;;;;;;6.85;4.70;;;;;;;26.14;52.71;100185.75;1788545;79;21418;-46
2021/08/26 03:02:28;;;;;;;5.92;4.20;;;;;;;26.14;52.77;100178.77;1794091;78;21268;-45
2021/08/26 03:04:54;;;;;;;6.33;4.22;;;;;;;26.13;52.83;100173.00;1796774;79;21051;-46
2021/08/26 03:07:20;;;;;;;5.75;4.08;;;;;;;26.13;52.85;100174.40;1782474;78;22020;-45
2021/08/26 03:09:46;;;;;;;6.28;4.25;;;;;;;26.13;52.89;100168.02;1797059;79;20915;-48
2021/08/26 03:12:12;;;;;;;7.12;4.55;;;;;;;26.12;52.94;100167.79;1795552;79;21009;-45
2021/08/26 03:14:39;;;;;;;6.30;4.53;;;;;;;26.12;53.01;100171.39;1804892;78;21500;-46
2021/08/26 03:17:05;;;;;;;5.10;4.17;;;;;;;26.12;53.09;100169.99;1797254;78;21073;-48
2021/08/26 03:19:31;;;;;;;6.05;4.58;;;;;;;26.12;53.14;100167.20;1802178;78;20901;-45
2021/08/26 03:21:57;;;;;;;7.67;4.85;;;;;;;26.12;53.19;100172.78;1792984;78;20999;-46
2021/08/26 03:24:23;;;;;;;7.50;4.33;;;;;;;26.13;53.27;100167.43;1787605;79;21028;-47
2021/08/26 03:26:49;;;;;;;6.58;4.72;;;;;;;26.11;53.30;100178.12;1787982;78;21052;-45
2021/08/26 03:29:15;;;;;;;7.03;4.72;;;;;;;26.12;53.31;100178.94;1789255;78;21931;-46
2021/08/26 03:31:41;;;;;;;6.97;4.28;;;;;;;26.11;53.36;100172.55;1787252;78;21044;-45
2021/08/26 03:34:07;;;;;;;6.58;4.67;;;;;;;26.11;53.42;100182.31;1811987;78;21122;-45
2021/08/26 03:36:33;;;;;;;5.80;4.03;;;;;;;26.11;53.48;100182.90;1803944;78;20885;-47
2021/08/26 03:39:00;;;;;;;6.28;4.42;;;;;;;26.11;53.48;100175.93;1794350;78;20870;-45
2021/08/26 03:41:26;;;;;;;5.28;4.03;;;;;;;26.12;53.47;100183.13;1797818;78;21091;-45
2021/08/26 03:43:52;;;;;;;6.17;4.33;;;;;;;26.11;53.53;100179.52;1801727;78;20977;-46
2021/08/26 03:46:18;;;;;;;6.47;4.65;;;;;;;26.10;53.55;100184.88;1808399;78;21059;-47
2021/08/26 03:48:44;;;;;;;6.35;4.45;;;;;;;26.11;53.61;100183.70;1802992;78;21436;-47
2021/08/26 03:51:10;;;;;;;6.05;4.45;;;;;;;26.10;53.67;100186.27;1807237;78;21043;-46
2021/08/26 03:53:36;;;;;;;6.70;4.62;;;;;;;26.10;53.71;100188.25;1798302;78;21241;-43
2021/08/26 03:56:05;;;;;;;6.65;4.17;;;;;;;26.10;53.75;100194.63;1794106;78;20920;-45
2021/08/26 03:58:33;;;;;;;4.90;3.83;;;;;;;26.10;53.73;100181.28;1814047;78;20993;-47
2021/08/26 04:01:04;;;;;;;6.42;4.28;;;;;;;26.09;53.62;100196.42;1748276;81;21107;-48
2021/08/26 04:03:31;;;;;;;6.30;4.42;;;;;;;26.08;53.50;100191.42;1744008;81;21000;-48
2021/08/26 04:05:57;;;;;;;4.78;4.12;;;;;;;26.06;53.31;100199.92;1767253;80;21440;-46
2021/08/26 04:08:24;;;;;;;5.42;4.25;;;;;;;26.04;53.13;100200.31;1774796;80;21551;-50
2021/08/26 04:10:50;;;;;;;6.30;4.12;;;;;;;26.03;52.98;100200.67;1738434;81;21040;-48
2021/08/26 04:13:16;;;;;;;7.95;5.03;;;;;;;26.01;52.80;100210.00;1750348;81;21522;-49
2021/08/26 04:15:42;;;;;;;7.60;4.75;;;;;;;26.00;52.68;100205.02;1741769;81;21015;-46
2021/08/26 04:18:08;;;;;;;9.78;6.03;;;;;;;25.99;52.59;100206.77;1735207;81;21668;-47
2021/08/26 04:20:35;;;;;;;6.00;4.53;;;;;;;25.98;52.55;100210.72;1753307;81;21791;-48
2021/08/26 04:23:05;;;;;;;6.17;4.42;;;;;;;25.98;52.51;100217.69;1731200;81;21044;-48
2021/08/26 04:25:31;;;;;;;8.87;5.07;;;;;;;25.97;52.39;100218.88;1754442;81;21499;-48
2021/08/26 04:27:57;;;;;;;6.67;5.05;;;;;;;25.96;52.29;100227.83;1753056;81;21133;-52
2021/08/26 04:30:27;;;;;;;7.22;5.10;;;;;;;25.95;52.18;100226.21;1749777;81;21211;-52
2021/08/26 04:32:53;;;;;;;6.20;5.10;;;;;;;25.94;52.07;100220.41;1668664;81;21573;-52
2021/08/26 04:35:19;;;;;;;7.92;5.10;;;;;;;25.94;51.99;100227.37;1742790;81;21699;-46
2021/08/26 04:37:45;;;;;;;8.13;4.92;;;;;;;25.95;51.98;100232.37;1743120;81;20956;-59
2021/08/26 04:40:13;;;;;;;7.25;5.03;;;;;;;25.94;51.86;100237.13;1746995;81;20917;-56
2021/08/26 04:42:39;;;;;;;6.28;5.15;;;;;;;25.95;51.78;100237.94;1746057;81;21077;-60
2021/08/26 04:45:06;;;;;;;6.70;5.10;;;;;;;25.93;51.69;100227.96;1741945;81;21751;-51
2021/08/26 04:47:32;;;;;;;8.83;5.10;;;;;;;25.93;51.64;100227.15;1736792;80;21064;-49
2021/08/26 04:49:59;;;;;;;9.00;5.60;;;;;;;25.91;51.58;100223.36;1745237;80;20968;-48
2021/08/26 04:52:25;;;;;;;5.90;4.40;;;;;;;25.91;51.51;100227.53;1744107;80;20988;-52
2021/08/26 04:54:51;;;;;;;15.25;6.67;;;;;;;25.91;51.38;100223.94;1740950;80;21257;-46
2021/08/26 04:57:17;;;;;;;7.05;4.90;;;;;;;25.91;51.30;100226.73;1746000;81;21095;-46
2021/08/26 04:59:43;;;;;;;6.37;4.65;;;;;;;25.90;51.21;100230.68;1734981;80;21457;-50
2021/08/26 05:02:09;;;;;;;7.90;5.03;;;;;;;25.90;51.12;100228.70;1750904;81;20875;-47
2021/08/26 05:04:35;;;;;;;6.60;4.87;;;;;;;25.90;51.03;100237.65;1725006;81;21021;-50
2021/08/26 05:07:02;;;;;;;11.57;5.72;;;;;;;25.89;50.90;100224.88;1734169;81;21985;-51
2021/08/26 05:09:28;;;;;;;8.10;5.85;;;;;;;25.87;50.85;100221.09;1731566;81;21566;-53
2021/08/26 05:11:55;;;;;;;9.50;5.67;;;;;;;25.86;50.82;100221.44;1735694;81;21049;-55
2021/08/26 05:14:21;;;;;;;8.95;6.05;;;;;;;25.85;50.76;100231.78;1742857;81;21460;-55
2021/08/26 05:16:48;;;;;;;9.70;5.95;;;;;;;25.85;50.71;100238.75;1741056;81;20939;-54
2021/08/26 05:19:14;;;;;;;9.30;5.67;;;;;;;25.85;50.68;100239.33;1744848;81;21323;-52
2021/08/26 05:21:39;;;;;;;6.83;5.53;;;;;;;25.84;50.61;100234.34;1735596;81;20969;-55
2021/08/26 05:24:06;;;;;;;8.28;5.30;;;;;;;25.82;50.53;100235.31;1732496;81;20947;-49
2021/08/26 05:26:32;;;;;;;10.08;6.15;;;;;;;25.82;50.47;100231.71;1741719;81;21046;-52
2021/08/26 05:28:58;;;;;;;11.35;5.62;;;;;;;25.81;50.40;100235.66;1732950;81;21012;-53
2021/08/26 05:31:24;;;;;;;7.30;5.92;;;;;;;25.80;50.39;100236.25;1738069;81;22194;-55
2021/08/26 05:33:50;;;;;;;8.28;5.47;;;;;;;25.80;50.40;100237.64;1741929;81;21031;-50
2021/08/26 05:36:16;;;;;;;6.25;5.60;;;;;;;25.81;50.43;100239.26;1746120;81;21670;-54
2021/08/26 05:38:42;;;;;;;7.20;5.75;;;;;;;25.81;50.37;100240.66;1742738;81;21918;-53
2021/08/26 05:41:08;;;;;;;8.65;5.87;;;;;;;25.82;50.33;100237.28;1751476;80;21004;-52
2021/08/26 05:43:34;;;;;;;8.20;5.53;;;;;;;25.81;50.29;100232.30;1750918;80;21975;-54
2021/08/26 05:46:01;;;;;;;6.90;5.30;;;;;;;25.81;50.19;100240.66;1750348;80;21134;-55
2021/08/26 05:48:29;;;;;;;6.87;5.15;;;;;;;25.80;50.13;100236.86;1735053;80;21452;-54
2021/08/26 05:50:55;;;;;;;6.37;5.70;;;;;;;25.79;50.09;100238.84;1743194;81;21474;-55
2021/08/26 05:53:21;;;;;;;5.97;5.37;;;;;;;25.78;50.06;100241.98;1743763;81;20888;-52
2021/08/26 05:55:48;;;;;;;11.22;6.00;;;;;;;25.78;50.01;100239.19;1751369;80;21242;-48
2021/08/26 05:58:14;;;;;;;6.97;5.15;;;;;;;25.77;49.99;100237.57;1741218;81;21554;-53
2021/08/26 06:00:40;;;;;;;8.28;5.45;;;;;;;25.76;49.94;100235.95;1741190;80;21059;-51
2021/08/26 06:03:07;;;;;;;7.67;5.20;;;;;;;25.76;49.85;100237.34;1749628;80;21400;-54
2021/08/26 06:05:32;;;;;;;7.78;4.95;;;;;;;25.75;49.81;100240.74;1752757;80;20938;-55
2021/08/26 06:07:59;;;;;;;7.72;5.03;;;;;;;25.75;49.79;100235.75;1749568;80;21494;-51
2021/08/26 06:10:25;;;;;;;5.60;4.70;;;;;;;25.74;49.76;100230.77;1750007;80;20862;-55
2021/08/26 06:12:51;;;;;;;10.78;5.62;;;;;;;25.74;49.72;100235.53;1752402;80;20864;-53
2021/08/26 06:15:17;;;;;;;8.08;5.37;;;;;;;25.73;49.69;100230.53;1752890;81;20932;-52
2021/08/26 06:17:43;;;;;;;6.03;4.95;;;;;;;25.74;49.69;100234.13;1754693;80;20864;-52
2021/08/26 06:20:12;;;;;;;6.83;5.35;;;;;;;25.75;49.70;100235.17;1736115;81;21435;-53
2021/08/26 06:22:39;;;;;;;7.37;4.97;;;;;;;25.77;49.70;100238.97;1756207;80;21122;-58
2021/08/26 06:25:07;;;;;;;7.08;5.53;;;;;;;25.77;49.74;100243.14;1731171;80;22383;-49
2021/08/26 06:27:33;;;;;;;7.53;4.95;;;;;;;25.80;49.73;100246.00;1750542;80;21138;-48
2021/08/26 06:29:59;;;;;;;6.42;4.87;;;;;;;25.82;49.70;100245.06;1751991;80;21063;-53
2021/08/26 06:32:26;;;;;;;13.15;5.40;;;;;;;25.82;49.70;100242.27;1747267;80;21311;-58
2021/08/26 06:34:52;;;;;;;5.55;4.78;;;;;;;25.85;49.70;100235.95;1749944;80;21055;-58
2021/08/26 06:37:18;;;;;;;5.03;4.53;;;;;;;25.85;49.69;100245.72;1754161;80;21027;-57
2021/08/26 06:39:44;;;;;;;6.22;4.90;;;;;;;25.87;49.67;100252.33;1756343;80;20975;-56
2021/08/26 06:42:10;;;;;;;6.25;4.92;;;;;;;25.88;49.62;100246.98;1758408;80;21649;-56
2021/08/26 06:44:36;;;;;;;5.85;4.90;;;;;;;25.88;49.56;100248.38;1745624;80;21843;-51
2021/08/26 06:47:03;;;;;;;8.70;5.35;;;;;;;25.88;49.56;100238.62;1750800;79;21091;-48
2021/08/26 06:49:29;;;;;;;10.58;4.70;;;;;;;25.88;49.58;100226.08;1753346;80;21423;-49
2021/08/26 06:51:55;;;;;;;6.28;5.00;;;;;;;25.90;49.61;100223.71;1751851;80;21080;-51
2021/08/26 06:54:21;;;;;;;9.33;5.78;;;;;;;25.91;49.69;100216.97;1748863;80;21133;-52
2021/08/26 06:56:48;;;;;;;9.70;5.50;;;;;;;25.92;49.81;100218.59;1753186;80;21483;-52
2021/08/26 06:59:14;;;;;;;10.85;5.37;;;;;;;25.93;49.89;100218.20;1747514;80;21089;-52
2021/08/26 07:01:40;;;;;;;10.30;5.62;;;;;;;25.95;49.98;100219.83;1750961;80;20950;-49
2021/08/26 07:04:06;;;;;;;14.03;6.03;;;;;;;25.96;50.02;100222.25;1749610;80;21897;-52
2021/08/26 07:06:33;;;;;;;14.50;6.33;;;;;;;25.97;50.10;100223.06;1756946;80;20898;-50
2021/08/26 07:09:00;;;;;;;12.10;5.80;;;;;;;25.97;50.16;100218.88;1757285;80;21182;-48
2021/08/26 07:11:26;;;;;;;10.68;5.12;;;;;;;25.98;50.22;100214.90;1731370;81;21024;-52
2021/08/26 07:13:52;;;;;;;9.50;5.03;;;;;;;25.98;50.23;100208.74;1758376;80;21058;-52
2021/08/26 07:16:19;;;;;;;8.85;5.30;;;;;;;25.99;50.27;100207.57;1760467;80;21200;-51
2021/08/26 07:18:45;;;;;;;9.48;5.22;;;;;;;25.99;50.32;100210.36;1762342;80;21110;-49
2021/08/26 07:21:11;;;;;;;5.85;4.15;;;;;;;25.99;50.35;100216.52;1758992;80;21524;-52
2021/08/26 07:23:37;;;;;;;6.25;4.50;;;;;;;26.00;50.37;100206.98;1767400;80;21500;-53
2021/08/26 07:26:03;;;;;;;6.08;4.72;;;;;;;26.00;50.22;100215.35;1759757;80;21033;-50
2021/08/26 07:28:29;;;;;;;7.78;4.55;;;;;;;25.99;50.14;100223.48;1758575;80;21415;-51
2021/08/26 07:30:55;;;;;;;9.33;4.75;;;;;;;26.00;50.18;100231.49;1756300;80;20982;-50
2021/08/26 07:33:22;;;;;;;6.97;3.83;;;;;;;26.00;50.25;100230.10;1742750;81;21072;-49
2021/08/26 07:35:48;;;;;;;5.97;4.22;;;;;;;26.01;50.27;100237.30;1728493;81;21004;-51
2021/08/26 07:38:14;;;;;;;9.48;4.62;;;;;;;26.01;50.22;100227.54;1737458;81;21517;-48
2021/08/26 07:40:40;;;;;;;7.75;4.25;;;;;;;26.02;50.24;100223.55;1759191;80;21058;-51
2021/08/26 07:43:06;;;;;;;8.80;4.90;;;;;;;26.02;50.14;100224.95;1796377;78;20988;-49
2021/08/26 07:45:32;;;;;;;6.15;4.20;;;;;;;26.03;50.10;100224.36;1795490;79;21606;-47
2021/08/26 07:47:58;;;;;;;6.05;4.25;;;;;;;26.03;50.16;100234.93;1794957;79;21087;-52
2021/08/26 07:50:24;;;;;;;7.08;4.28;;;;;;;26.03;50.17;100234.93;1788636;78;21050;-49
2021/08/26 07:52:51;;;;;;;7.70;5.08;;;;;;;26.04;50.18;100227.37;1790218;78;20942;-52
2021/08/26 07:55:17;;;;;;;6.75;4.40;;;;;;;26.05;50.19;100224.81;1786587;78;20897;-48
2021/08/26 07:57:43;;;;;;;7.40;4.35;;;;;;;26.04;50.18;100230.98;1798816;79;21480;-48
2021/08/26 08:00:10;;;;;;;8.85;4.95;;;;;;;26.05;50.17;100220.05;1796138;79;20985;-50
2021/08/26 08:02:36;;;;;;;7.00;4.50;;;;;;;26.05;50.17;100227.02;1785575;78;21199;-49
2021/08/26 08:05:03;;;;;;;6.75;4.45;;;;;;;26.08;50.08;100233.83;1792219;79;21018;-50
2021/08/26 08:07:29;;;;;;;5.03;3.80;;;;;;;26.09;49.97;100231.27;1782047;78;21005;-48
2021/08/26 08:09:56;;;;;;;7.55;4.78;;;;;;;26.10;49.90;100237.84;1793210;79;21061;-49
2021/08/26 08:12:22;;;;;;;7.17;4.30;;;;;;;26.10;49.79;100237.03;1792993;78;21091;-51
2021/08/26 08:14:49;;;;;;;6.75;4.25;;;;;;;26.10;49.66;100231.45;1797894;78;21561;-46
2021/08/26 08:17:15;;;;;;;5.10;4.42;;;;;;;26.10;49.56;100235.06;1787813;78;21029;-52
2021/08/26 08:19:41;;;;;;;5.28;4.05;;;;;;;26.09;49.52;100229.28;1798336;78;21022;-51
2021/08/26 08:22:07;;;;;;;6.75;4.97;;;;;;;26.10;49.51;100232.85;1794458;78;21177;-48
2021/08/26 08:24:33;;;;;;;6.33;4.78;;;;;;;26.11;49.50;100230.30;1787942;78;22256;-48
2021/08/26 08:26:59;;;;;;;7.22;4.58;;;;;;;26.12;49.48;100225.75;1803148;79;21001;-50
2021/08/26 08:29:25;;;;;;;6.42;4.42;;;;;;;26.10;49.43;100230.87;1786687;78;21029;-51
2021/08/26 08:31:51;;;;;;;6.70;4.78;;;;;;;26.11;49.38;100225.53;1773787;78;20881;-50
2021/08/26 08:34:18;;;;;;;9.60;4.53;;;;;;;26.10;49.36;100215.55;1773038;79;21023;-50
2021/08/26 08:36:44;;;;;;;5.85;4.10;;;;;;;26.12;49.40;100211.81;1762428;80;20991;-48
2021/08/26 08:39:10;;;;;;;5.12;4.62;;;;;;;26.12;49.37;100212.40;1761888;80;21001;-50
2021/08/26 08:41:36;;;;;;;6.58;4.37;;;;;;;26.12;49.39;100208.22;1750907;80;21016;-50
2021/08/26 08:44:02;;;;;;;6.53;4.53;;;;;;;26.12;49.38;100202.05;1705254;80;20913;-47
2021/08/26 08:46:28;;;;;;;6.97;4.62;;;;;;;26.11;49.34;100197.64;1734661;80;21656;-48
2021/08/26 08:48:56;;;;;;;5.60;4.90;;;;;;;26.13;49.32;100195.31;1760103;80;21020;-49
2021/08/26 08:51:23;;;;;;;5.35;4.40;;;;;;;26.14;49.32;100198.30;1754748;80;21019;-47
2021/08/26 08:53:50;;;;;;;6.00;4.58;;;;;;;26.15;49.29;100201.30;1757581;80;21011;-48
2021/08/26 08:56:17;;;;;;;7.65;4.65;;;;;;;26.15;49.27;100209.67;1762867;80;20881;-49
2021/08/26 08:58:43;;;;;;;6.15;4.85;;;;;;;26.16;49.26;100208.50;1756244;80;21224;-48
2021/08/26 09:01:12;;;;;;;5.00;4.47;;;;;;;26.16;49.25;100204.91;1754592;80;21012;-48
2021/08/26 09:03:38;;;;;;;5.00;4.20;;;;;;;26.19;49.25;100206.94;1731182;80;21593;-52
2021/08/26 09:06:04;;;;;;;5.83;4.65;;;;;;;26.18;49.24;100199.78;1755936;80;20933;-51
2021/08/26 09:08:32;;;;;;;6.65;4.60;;;;;;;26.20;49.22;100200.23;1761641;80;21054;-49
2021/08/26 09:11:19;;;;;;;4.90;4.35;;;;;;;26.20;49.18;100203.83;1756155;80;21690;-52
2021/08/26 09:13:45;;;;;;;7.05;4.78;;;;;;;26.21;49.18;100201.27;1763680;80;21049;-51
2021/08/26 09:16:12;;;;;;;6.30;4.78;;;;;;;26.23;49.16;100206.45;1757406;80;21057;-51
2021/08/26 09:18:38;;;;;;;5.58;4.58;;;;;;;26.23;49.13;100210.64;1753052;80;21189;-49
2021/08/26 09:21:07;;;;;;;6.30;4.30;;;;;;;26.25;49.08;100213.29;1762967;80;21461;-48
2021/08/26 09:23:53;;;;;;;5.33;4.83;;;;;;;26.26;49.02;100210.73;1758134;80;21507;-47
2021/08/26 09:26:21;;;;;;;6.65;4.80;;;;;;;26.25;48.94;100202.14;1758331;80;21013;-48
2021/08/26 09:28:48;;;;;;;6.87;5.15;;;;;;;26.27;48.86;100199.77;1759046;80;20997;-50
2021/08/26 09:31:22;;;;;;;5.17;4.67;;;;;;;26.28;48.84;100192.21;1756282;80;21497;-51
2021/08/26 09:34:05;;;;;;;6.28;4.75;;;;;;;26.29;48.81;100196.62;1777532;79;21064;-51
2021/08/26 09:36:37;;;;;;;5.28;4.78;;;;;;;26.27;48.80;100205.34;1797610;79;21070;-47
2021/08/26 09:39:11;;;;;;;6.15;4.75;;;;;;;26.27;48.81;100198.38;1783222;78;21156;-48
2021/08/26 09:41:45;;;;;;;5.45;4.65;;;;;;;26.26;48.79;100185.63;1743503;82;21551;-50
2021/08/26 09:44:18;;;;;;;5.42;4.92;;;;;;;26.25;48.77;100181.80;1783255;78;21048;-48
2021/08/26 09:46:47;;;;;;;5.42;4.72;;;;;;;26.24;48.77;100187.16;1790136;78;21072;-51
2021/08/26 09:49:16;;;;;;;6.28;4.60;;;;;;;26.25;48.77;100185.98;1799074;78;21288;-48
2021/08/26 09:51:43;;;;;;;4.97;4.47;;;;;;;26.24;48.79;100183.78;1791546;79;21086;-49
2021/08/26 09:54:40;;;;;;;5.40;4.60;;;;;;;26.24;48.77;100187.97;1791828;78;22197;-49
2021/08/26 09:57:25;;;;;;;5.47;4.80;;;;;;;26.23;48.78;100182.75;1794134;78;22511;-51
2021/08/26 09:59:58;;;;;;;5.22;4.72;;;;;;;26.22;48.79;100188.94;1786716;79;21005;-50
2021/08/26 10:02:30;;;;;;;5.47;4.92;;;;;;;26.23;48.78;100174.38;1786862;79;21089;-48
2021/08/26 10:04:57;;;;;;;5.17;4.28;;;;;;;26.23;48.77;100174.38;1796282;78;21553;-51
2021/08/26 10:07:25;;;;;;;5.60;4.83;;;;;;;26.24;48.75;100183.78;1800600;78;21513;-49
2021/08/26 10:09:51;;;;;;;6.37;4.80;;;;;;;26.24;48.77;100183.78;1796863;78;21020;-50
2021/08/26 10:12:17;;;;;;;5.05;4.55;;;;;;;26.24;48.76;100182.98;1792208;79;21007;-49
2021/08/26 10:14:51;;;;;;;5.12;4.62;;;;;;;26.25;48.76;100172.86;1793435;79;23174;-52
2021/08/26 10:17:18;;;;;;;5.15;4.60;;;;;;;26.28;48.72;100179.66;1795835;78;21501;-48
2021/08/26 10:19:44;;;;;;;5.87;4.33;;;;;;;26.28;48.68;100183.26;1786573;79;21087;-48
2021/08/26 10:22:10;;;;;;;5.58;4.95;;;;;;;26.30;48.66;100189.28;1736161;81;21168;-48
2021/08/26 10:24:37;;;;;;;5.87;4.53;;;;;;;26.32;48.65;100189.70;1743045;81;21016;-48
2021/08/26 10:27:19;;;;;;;6.97;4.58;;;;;;;26.34;48.62;100190.16;1787652;78;21183;-49
2021/08/26 10:29:47;;;;;;;5.10;4.47;;;;;;;26.35;48.55;100191.74;1790098;79;21074;-51
2021/08/26 10:32:26;;;;;;;6.05;4.45;;;;;;;26.38;48.47;100192.19;1786837;79;21682;-51
2021/08/26 10:35:14;;;;;;;6.97;4.80;;;;;;;26.38;48.41;100195.80;1741684;81;21066;-51
2021/08/26 10:37:51;;;;;;;6.90;4.80;;;;;;;26.39;48.36;100179.86;1768284;79;21124;-49
2021/08/26 10:40:37;;;;;;;6.85;4.53;;;;;;;26.41;48.32;100188.66;1760445;80;21065;-49
2021/08/26 10:43:04;;;;;;;5.95;4.30;;;;;;;26.42;48.25;100193.06;1741511;81;21621;-50
2021/08/26 10:45:51;;;;;;;5.37;4.65;;;;;;;26.42;48.17;100191.66;1757389;79;21765;-49
2021/08/26 10:48:20;;;;;;;4.97;4.42;;;;;;;26.43;48.08;100183.52;1747135;80;21043;-48
2021/08/26 10:50:49;;;;;;;4.87;4.28;;;;;;;26.45;47.98;100174.17;1771267;79;21467;-48
2021/08/26 10:53:30;;;;;;;6.35;4.53;;;;;;;26.45;47.91;100181.95;1764698;79;21343;-51
2021/08/26 10:56:00;;;;;;;5.65;4.33;;;;;;;26.46;47.83;100182.18;1745651;80;21562;-50
2021/08/26 10:58:33;;;;;;;5.00;4.50;;;;;;;26.47;47.77;100182.99;1761738;80;21122;-48
2021/08/26 11:01:06;;;;;;;5.22;4.67;;;;;;;26.47;47.73;100178.80;1757580;80;21055;-48
2021/08/26 11:06:22;;;;;;;6.58;4.37;;;;;;;26.49;47.59;100184.22;1761447;80;21104;-48
2021/08/26 11:09:15;;;;;;;7.30;4.87;;;;;;;26.51;47.55;100181.88;1765212;80;20994;-50
2021/08/26 11:11:45;;;;;;;5.58;4.62;;;;;;;26.52;47.49;100174.31;1681485;81;21118;-48
2021/08/26 11:14:22;;;;;;;5.00;4.50;;;;;;;26.53;47.42;100177.30;1745000;81;21178;-51
2021/08/26 11:16:51;;;;;;;4.87;4.30;;;;;;;26.54;47.35;100171.94;1749171;81;21079;-48
2021/08/26 11:19:22;;;;;;;4.53;4.00;;;;;;;26.54;47.27;100171.36;1767798;80;21228;-47
2021/08/26 11:21:54;;;;;;;6.70;4.70;;;;;;;26.54;47.14;100169.96;1765696;80;21531;-51
2021/08/26 11:24:31;;;;;;;5.72;4.70;;;;;;;26.55;47.02;100172.98;1764882;80;21483;-48
2021/08/26 11:27:18;;;;;;;6.25;4.62;;;;;;;26.55;46.94;100171.58;1760996;80;21073;-51
2021/08/26 11:29:45;;;;;;;5.85;4.80;;;;;;;26.55;46.89;100161.01;1769041;80;21524;-49
2021/08/26 11:32:13;;;;;;;4.83;4.08;;;;;;;26.56;46.83;100155.65;1763785;80;23147;-47
2021/08/26 11:34:52;;;;;;;6.42;5.08;;;;;;;26.57;46.80;100154.45;1753632;80;21063;-52
2021/08/26 11:37:29;;;;;;;5.95;4.75;;;;;;;26.57;46.75;100163.63;1757749;81;21087;-48